sensor_id;sensor_type;location;lat;lon;timestamp;P1;durP1;ratioP1;P2;durP2;ratioP2
19223;SDS011;9746;47.180;9.776;2022-08-26T05:08:12;0.10;;;0.10;;
19223;SDS011;9746;47.180;9.776;2022-08-26T05:10:41;0.10;;;0.10;;
19223;SDS011;9746;47.180;9.776;2022-08-26T05:13:10;0.10;;;0.10;;
19223;SDS011;9746;47.180;9.776;2022-08-26T05:15:39;0.10;;;0.10;;
19223;SDS011;9746;47.180;9.776;2022-08-26T05:18:06;0.10;;;0.10;;
19223;SDS011;9746;47.180;9.776;2022-08-26T05:20:37;0.10;;;0.10;;
19223;SDS011;9746;47.180;9.776;2022-08-26T05:23:05;0.10;;;0.10;;
19223;SDS011;9746;47.180;9.776;2022-08-26T05:25:36;0.10;;;0.10;;
19223;SDS011;9746;47.180;9.776;2022-08-26T05:28:06;0.10;;;0.10;;
19223;SDS011;9746;47.180;9.776;2022-08-26T05:30:33;0.17;;;0.17;;
19223;SDS011;9746;47.180;9.776;2022-08-26T05:33:02;0.10;;;0.10;;
19223;SDS011;9746;47.180;9.776;2022-08-26T05:35:30;0.10;;;0.10;;
19223;SDS011;9746;47.180;9.776;2022-08-26T05:38:00;0.10;;;0.10;;
19223;SDS011;9746;47.180;9.776;2022-08-26T05:40:28;0.10;;;0.10;;
19223;SDS011;9746;47.180;9.776;2022-08-26T05:43:00;0.10;;;0.10;;
19223;SDS011;9746;47.180;9.776;2022-08-26T05:45:32;0.10;;;0.10;;
19223;SDS011;9746;47.180;9.776;2022-08-26T05:47:59;0.10;;;0.10;;
19223;SDS011;9746;47.180;9.776;2022-08-26T05:50:26;0.10;;;0.10;;
19223;SDS011;9746;47.180;9.776;2022-08-26T05:52:54;0.10;;;0.10;;
19223;SDS011;9746;47.180;9.776;2022-08-26T05:55:23;0.10;;;0.10;;
19223;SDS011;9746;47.180;9.776;2022-08-26T05:57:50;0.10;;;0.10;;
19223;SDS011;9746;47.180;9.776;2022-08-26T06:00:19;0.10;;;0.10;;
19223;SDS011;9746;47.180;9.776;2022-08-26T06:02:47;0.10;;;0.10;;
19223;SDS011;9746;47.180;9.776;2022-08-26T06:05:14;0.10;;;0.10;;
19223;SDS011;9746;47.180;9.776;2022-08-26T06:07:42;0.10;;;0.10;;
19223;SDS011;9746;47.180;9.776;2022-08-26T06:10:27;0.13;;;0.13;;
19223;SDS011;9746;47.180;9.776;2022-08-26T06:12:55;0.10;;;0.10;;
19223;SDS011;9746;47.180;9.776;2022-08-26T06:15:25;0.10;;;0.10;;
19223;SDS011;9746;47.180;9.776;2022-08-26T06:17:52;0.10;;;0.10;;
19223;SDS011;9746;47.180;9.776;2022-08-26T06:20:20;0.10;;;0.10;;
19223;SDS011;9746;47.180;9.776;2022-08-26T06:22:47;0.10;;;0.10;;
19223;SDS011;9746;47.180;9.776;2022-08-26T06:25:32;0.10;;;0.10;;
19223;SDS011;9746;47.180;9.776;2022-08-26T06:28:05;0.10;;;0.10;;
19223;SDS011;9746;47.180;9.776;2022-08-26T06:30:38;0.10;;;0.10;;
19223;SDS011;9746;47.180;9.776;2022-08-26T06:33:06;0.10;;;0.10;;
19223;SDS011;9746;47.180;9.776;2022-08-26T06:35:35;0.10;;;0.10;;
19223;SDS011;9746;47.180;9.776;2022-08-26T06:38:04;0.10;;;0.10;;
19223;SDS011;9746;47.180;9.776;2022-08-26T06:40:38;0.10;;;0.10;;
19223;SDS011;9746;47.180;9.776;2022-08-26T06:43:07;0.10;;;0.10;;
19223;SDS011;9746;47.180;9.776;2022-08-26T06:45:35;0.10;;;0.10;;
19223;SDS011;9746;47.180;9.776;2022-08-26T06:48:04;0.10;;;0.10;;
19223;SDS011;9746;47.180;9.776;2022-08-26T06:50:32;0.10;;;0.10;;
19223;SDS011;9746;47.180;9.776;2022-08-26T06:53:00;0.10;;;0.10;;
19223;SDS011;9746;47.180;9.776;2022-08-26T06:55:27;0.05;;;0.05;;
19223;SDS011;9746;47.180;9.776;2022-08-26T06:57:55;0.10;;;0.10;;
19223;SDS011;9746;47.180;9.776;2022-08-26T07:00:23;0.10;;;0.10;;
19223;SDS011;9746;47.180;9.776;2022-08-26T07:02:50;0.03;;;0.03;;
19223;SDS011;9746;47.180;9.776;2022-08-26T07:05:19;0.10;;;0.10;;
19223;SDS011;9746;47.180;9.776;2022-08-26T07:07:46;0.10;;;0.10;;
19223;SDS011;9746;47.180;9.776;2022-08-26T07:10:14;0.10;;;0.10;;
19223;SDS011;9746;47.180;9.776;2022-08-26T07:12:41;0.00;;;0.00;;
19223;SDS011;9746;47.180;9.776;2022-08-26T07:15:09;0.10;;;0.10;;
19223;SDS011;9746;47.180;9.776;2022-08-26T07:17:37;0.10;;;0.10;;
19223;SDS011;9746;47.180;9.776;2022-08-26T07:20:05;0.10;;;0.10;;
19223;SDS011;9746;47.180;9.776;2022-08-26T07:22:35;0.10;;;0.10;;
19223;SDS011;9746;47.180;9.776;2022-08-26T07:25:04;0.10;;;0.10;;
19223;SDS011;9746;47.180;9.776;2022-08-26T07:27:33;0.10;;;0.10;;
19223;SDS011;9746;47.180;9.776;2022-08-26T07:30:02;0.08;;;0.08;;
19223;SDS011;9746;47.180;9.776;2022-08-26T07:32:30;0.10;;;0.10;;
19223;SDS011;9746;47.180;9.776;2022-08-26T07:34:57;0.05;;;0.05;;
19223;SDS011;9746;47.180;9.776;2022-08-26T07:37:25;0.10;;;0.10;;
19223;SDS011;9746;47.180;9.776;2022-08-26T07:39:54;0.05;;;0.05;;
19223;SDS011;9746;47.180;9.776;2022-08-26T07:42:22;0.00;;;0.00;;
19223;SDS011;9746;47.180;9.776;2022-08-26T07:44:51;0.00;;;0.00;;
19223;SDS011;9746;47.180;9.776;2022-08-26T07:47:18;0.03;;;0.03;;
19223;SDS011;9746;47.180;9.776;2022-08-26T07:49:46;0.10;;;0.10;;
19223;SDS011;9746;47.180;9.776;2022-08-26T07:52:15;0.00;;;0.00;;
19223;SDS011;9746;47.180;9.776;2022-08-26T07:54:43;0.00;;;0.00;;
19223;SDS011;9746;47.180;9.776;2022-08-26T07:57:11;0.10;;;0.10;;
19223;SDS011;9746;47.180;9.776;2022-08-26T07:59:39;0.00;;;0.00;;
19223;SDS011;9746;47.180;9.776;2022-08-26T08:02:08;0.00;;;0.00;;
19223;SDS011;9746;47.180;9.776;2022-08-26T08:04:35;0.10;;;0.10;;
19223;SDS011;9746;47.180;9.776;2022-08-26T08:07:03;0.00;;;0.00;;
19223;SDS011;9746;47.180;9.776;2022-08-26T08:09:30;0.10;;;0.10;;
19223;SDS011;9746;47.180;9.776;2022-08-26T08:11:57;0.10;;;0.10;;
19223;SDS011;9746;47.180;9.776;2022-08-26T08:14:26;0.10;;;0.10;;
19223;SDS011;9746;47.180;9.776;2022-08-26T08:16:53;0.10;;;0.10;;
19223;SDS011;9746;47.180;9.776;2022-08-26T08:19:21;0.00;;;0.00;;
19223;SDS011;9746;47.180;9.776;2022-08-26T08:21:48;0.00;;;0.00;;
19223;SDS011;9746;47.180;9.776;2022-08-26T08:24:16;0.10;;;0.10;;
19223;SDS011;9746;47.180;9.776;2022-08-26T08:26:43;0.00;;;0.00;;
19223;SDS011;9746;47.180;9.776;2022-08-26T08:29:11;0.00;;;0.00;;
19223;SDS011;9746;47.180;9.776;2022-08-26T08:31:40;0.08;;;0.08;;
19223;SDS011;9746;47.180;9.776;2022-08-26T08:34:13;0.10;;;0.10;;
19223;SDS011;9746;47.180;9.776;2022-08-26T08:36:40;0.00;;;0.00;;
19223;SDS011;9746;47.180;9.776;2022-08-26T08:39:07;0.00;;;0.00;;
19223;SDS011;9746;47.180;9.776;2022-08-26T08:41:40;0.00;;;0.00;;
19223;SDS011;9746;47.180;9.776;2022-08-26T08:44:17;0.00;;;0.00;;
19223;SDS011;9746;47.180;9.776;2022-08-26T08:46:49;0.10;;;0.10;;
19223;SDS011;9746;47.180;9.776;2022-08-26T08:49:20;0.10;;;0.10;;
19223;SDS011;9746;47.180;9.776;2022-08-26T08:51:51;0.00;;;0.00;;
19223;SDS011;9746;47.180;9.776;2022-08-26T08:54:23;0.05;;;0.05;;
19223;SDS011;9746;47.180;9.776;2022-08-26T08:56:51;0.00;;;0.00;;
19223;SDS011;9746;47.180;9.776;2022-08-26T08:59:24;0.00;;;0.00;;
19223;SDS011;9746;47.180;9.776;2022-08-26T09:02:00;0.10;;;0.10;;
19223;SDS011;9746;47.180;9.776;2022-08-26T09:07:24;0.00;;;0.00;;
19223;SDS011;9746;47.180;9.776;2022-08-26T09:09:55;0.00;;;0.00;;
19223;SDS011;9746;47.180;9.776;2022-08-26T09:12:27;0.00;;;0.00;;
19223;SDS011;9746;47.180;9.776;2022-08-26T09:14:58;0.00;;;0.00;;
19223;SDS011;9746;47.180;9.776;2022-08-26T09:17:34;0.00;;;0.00;;
19223;SDS011;9746;47.180;9.776;2022-08-26T09:20:11;0.00;;;0.00;;
19223;SDS011;9746;47.180;9.776;2022-08-26T09:22:46;0.00;;;0.00;;
19223;SDS011;9746;47.180;9.776;2022-08-26T09:25:13;0.00;;;0.00;;
19223;SDS011;9746;47.180;9.776;2022-08-26T09:27:42;0.00;;;0.00;;
19223;SDS011;9746;47.180;9.776;2022-08-26T09:30:11;0.00;;;0.00;;
19223;SDS011;9746;47.180;9.776;2022-08-26T09:32:42;0.00;;;0.00;;
19223;SDS011;9746;47.180;9.776;2022-08-26T09:35:24;0.00;;;0.00;;
19223;SDS011;9746;47.180;9.776;2022-08-26T09:37:58;0.00;;;0.00;;
19223;SDS011;9746;47.180;9.776;2022-08-26T09:40:29;0.00;;;0.00;;
19223;SDS011;9746;47.180;9.776;2022-08-26T09:43:10;0.00;;;0.00;;
19223;SDS011;9746;47.180;9.776;2022-08-26T09:45:44;0.00;;;0.00;;
19223;SDS011;9746;47.180;9.776;2022-08-26T09:48:24;0.00;;;0.00;;
19223;SDS011;9746;47.180;9.776;2022-08-26T09:50:55;0.00;;;0.00;;
19223;SDS011;9746;47.180;9.776;2022-08-26T09:53:25;0.00;;;0.00;;
19223;SDS011;9746;47.180;9.776;2022-08-26T09:56:09;0.00;;;0.00;;
19223;SDS011;9746;47.180;9.776;2022-08-26T09:58:42;0.00;;;0.00;;
19223;SDS011;9746;47.180;9.776;2022-08-26T10:01:15;0.00;;;0.00;;
19223;SDS011;9746;47.180;9.776;2022-08-26T10:03:58;0.00;;;0.00;;
19223;SDS011;9746;47.180;9.776;2022-08-26T10:06:30;0.00;;;0.00;;
19223;SDS011;9746;47.180;9.776;2022-08-26T10:09:04;0.00;;;0.00;;
19223;SDS011;9746;47.180;9.776;2022-08-26T10:11:34;0.00;;;0.00;;
19223;SDS011;9746;47.180;9.776;2022-08-26T10:14:06;0.00;;;0.00;;
19223;SDS011;9746;47.180;9.776;2022-08-26T10:16:38;0.00;;;0.00;;
19223;SDS011;9746;47.180;9.776;2022-08-26T10:19:14;0.00;;;0.00;;
19223;SDS011;9746;47.180;9.776;2022-08-26T10:21:48;0.00;;;0.00;;
19223;SDS011;9746;47.180;9.776;2022-08-26T10:24:21;0.00;;;0.00;;
19223;SDS011;9746;47.180;9.776;2022-08-26T10:26:57;0.00;;;0.00;;
19223;SDS011;9746;47.180;9.776;2022-08-26T10:29:30;0.00;;;0.00;;
19223;SDS011;9746;47.180;9.776;2022-08-26T10:32:04;0.00;;;0.00;;
19223;SDS011;9746;47.180;9.776;2022-08-26T10:34:40;0.00;;;0.00;;
19223;SDS011;9746;47.180;9.776;2022-08-26T10:37:09;0.00;;;0.00;;
19223;SDS011;9746;47.180;9.776;2022-08-26T10:39:42;0.00;;;0.00;;
19223;SDS011;9746;47.180;9.776;2022-08-26T10:42:16;0.00;;;0.00;;
19223;SDS011;9746;47.180;9.776;2022-08-26T10:44:49;0.00;;;0.00;;
19223;SDS011;9746;47.180;9.776;2022-08-26T10:47:20;0.00;;;0.00;;
19223;SDS011;9746;47.180;9.776;2022-08-26T10:49:52;0.00;;;0.00;;
19223;SDS011;9746;47.180;9.776;2022-08-26T10:52:24;0.00;;;0.00;;
19223;SDS011;9746;47.180;9.776;2022-08-26T10:55:00;0.00;;;0.00;;
19223;SDS011;9746;47.180;9.776;2022-08-26T10:57:39;0.00;;;0.00;;
19223;SDS011;9746;47.180;9.776;2022-08-26T11:00:14;0.00;;;0.00;;
19223;SDS011;9746;47.180;9.776;2022-08-26T11:03:04;0.00;;;0.00;;
19223;SDS011;9746;47.180;9.776;2022-08-26T11:05:46;0.00;;;0.00;;
19223;SDS011;9746;47.180;9.776;2022-08-26T11:08:51;0.00;;;0.00;;
19223;SDS011;9746;47.180;9.776;2022-08-26T11:14:11;0.00;;;0.00;;
19223;SDS011;9746;47.180;9.776;2022-08-26T11:16:57;0.00;;;0.00;;
19223;SDS011;9746;47.180;9.776;2022-08-26T11:22:35;0.00;;;0.00;;
19223;SDS011;9746;47.180;9.776;2022-08-26T11:25:08;0.00;;;0.00;;
19223;SDS011;9746;47.180;9.776;2022-08-26T11:27:50;0.00;;;0.00;;
19223;SDS011;9746;47.180;9.776;2022-08-26T11:33:07;0.00;;;0.00;;
19223;SDS011;9746;47.180;9.776;2022-08-26T11:35:48;0.00;;;0.00;;
19223;SDS011;9746;47.180;9.776;2022-08-26T11:38:21;0.00;;;0.00;;
19223;SDS011;9746;47.180;9.776;2022-08-26T11:41:06;0.00;;;0.00;;
19223;SDS011;9746;47.180;9.776;2022-08-26T11:43:36;0.00;;;0.00;;
19223;SDS011;9746;47.180;9.776;2022-08-26T11:46:07;0.00;;;0.00;;
19223;SDS011;9746;47.180;9.776;2022-08-26T11:48:37;0.00;;;0.00;;
19223;SDS011;9746;47.180;9.776;2022-08-26T11:51:06;0.00;;;0.00;;
19223;SDS011;9746;47.180;9.776;2022-08-26T11:53:37;0.00;;;0.00;;
19223;SDS011;9746;47.180;9.776;2022-08-26T11:56:07;0.00;;;0.00;;
19223;SDS011;9746;47.180;9.776;2022-08-26T11:58:40;0.00;;;0.00;;
19223;SDS011;9746;47.180;9.776;2022-08-26T12:01:10;0.00;;;0.00;;
19223;SDS011;9746;47.180;9.776;2022-08-26T12:03:49;0.00;;;0.00;;
19223;SDS011;9746;47.180;9.776;2022-08-26T12:06:20;0.00;;;0.00;;
19223;SDS011;9746;47.180;9.776;2022-08-26T12:08:52;0.00;;;0.00;;
19223;SDS011;9746;47.180;9.776;2022-08-26T12:11:25;0.00;;;0.00;;
19223;SDS011;9746;47.180;9.776;2022-08-26T12:13:56;0.00;;;0.00;;
19223;SDS011;9746;47.180;9.776;2022-08-26T12:16:25;0.00;;;0.00;;
19223;SDS011;9746;47.180;9.776;2022-08-26T12:18:55;0.00;;;0.00;;
19223;SDS011;9746;47.180;9.776;2022-08-26T12:21:24;0.00;;;0.00;;
19223;SDS011;9746;47.180;9.776;2022-08-26T12:23:56;0.00;;;0.00;;
19223;SDS011;9746;47.180;9.776;2022-08-26T12:26:26;0.00;;;0.00;;
19223;SDS011;9746;47.180;9.776;2022-08-26T12:28:56;0.00;;;0.00;;
19223;SDS011;9746;47.180;9.776;2022-08-26T12:31:28;0.00;;;0.00;;
19223;SDS011;9746;47.180;9.776;2022-08-26T12:33:57;0.00;;;0.00;;
19223;SDS011;9746;47.180;9.776;2022-08-26T12:36:29;0.00;;;0.00;;
19223;SDS011;9746;47.180;9.776;2022-08-26T12:39:06;0.00;;;0.00;;
19223;SDS011;9746;47.180;9.776;2022-08-26T12:44:32;0.00;;;0.00;;
19223;SDS011;9746;47.180;9.776;2022-08-26T12:47:03;0.00;;;0.00;;
19223;SDS011;9746;47.180;9.776;2022-08-26T12:49:34;0.00;;;0.00;;
19223;SDS011;9746;47.180;9.776;2022-08-26T12:52:02;0.00;;;0.00;;
19223;SDS011;9746;47.180;9.776;2022-08-26T12:54:32;0.00;;;0.00;;
19223;SDS011;9746;47.180;9.776;2022-08-26T12:57:19;0.00;;;0.00;;
19223;SDS011;9746;47.180;9.776;2022-08-26T12:59:53;0.00;;;0.00;;
19223;SDS011;9746;47.180;9.776;2022-08-26T13:02:36;0.00;;;0.00;;
19223;SDS011;9746;47.180;9.776;2022-08-26T13:05:04;0.00;;;0.00;;
19223;SDS011;9746;47.180;9.776;2022-08-26T13:10:36;0.00;;;0.00;;
19223;SDS011;9746;47.180;9.776;2022-08-26T13:13:05;0.00;;;0.00;;
19223;SDS011;9746;47.180;9.776;2022-08-26T13:15:33;0.00;;;0.00;;
19223;SDS011;9746;47.180;9.776;2022-08-26T13:18:00;0.00;;;0.00;;
19223;SDS011;9746;47.180;9.776;2022-08-26T13:20:28;0.00;;;0.00;;
19223;SDS011;9746;47.180;9.776;2022-08-26T13:22:56;0.00;;;0.00;;
19223;SDS011;9746;47.180;9.776;2022-08-26T13:25:24;0.00;;;0.00;;
19223;SDS011;9746;47.180;9.776;2022-08-26T13:27:53;0.00;;;0.00;;
19223;SDS011;9746;47.180;9.776;2022-08-26T13:30:20;0.00;;;0.00;;
19223;SDS011;9746;47.180;9.776;2022-08-26T13:32:48;0.00;;;0.00;;
19223;SDS011;9746;47.180;9.776;2022-08-26T13:35:18;0.00;;;0.00;;
19223;SDS011;9746;47.180;9.776;2022-08-26T13:37:45;0.00;;;0.00;;
19223;SDS011;9746;47.180;9.776;2022-08-26T13:40:13;0.00;;;0.00;;
19223;SDS011;9746;47.180;9.776;2022-08-26T13:42:40;0.00;;;0.00;;
19223;SDS011;9746;47.180;9.776;2022-08-26T13:45:10;0.00;;;0.00;;
19223;SDS011;9746;47.180;9.776;2022-08-26T13:47:37;0.00;;;0.00;;
19223;SDS011;9746;47.180;9.776;2022-08-26T13:50:05;0.00;;;0.00;;
19223;SDS011;9746;47.180;9.776;2022-08-26T13:52:33;0.00;;;0.00;;
19223;SDS011;9746;47.180;9.776;2022-08-26T13:55:00;0.00;;;0.00;;
19223;SDS011;9746;47.180;9.776;2022-08-26T13:57:28;0.00;;;0.00;;
19223;SDS011;9746;47.180;9.776;2022-08-26T13:59:55;0.00;;;0.00;;
19223;SDS011;9746;47.180;9.776;2022-08-26T14:02:26;0.00;;;0.00;;
19223;SDS011;9746;47.180;9.776;2022-08-26T14:04:54;0.00;;;0.00;;
19223;SDS011;9746;47.180;9.776;2022-08-26T14:07:22;0.00;;;0.00;;
19223;SDS011;9746;47.180;9.776;2022-08-26T14:09:50;0.00;;;0.00;;
19223;SDS011;9746;47.180;9.776;2022-08-26T14:12:17;0.00;;;0.00;;
19223;SDS011;9746;47.180;9.776;2022-08-26T14:14:45;0.00;;;0.00;;
19223;SDS011;9746;47.180;9.776;2022-08-26T14:17:12;0.00;;;0.00;;
19223;SDS011;9746;47.180;9.776;2022-08-26T14:19:46;0.00;;;0.00;;
19223;SDS011;9746;47.180;9.776;2022-08-26T14:22:16;0.00;;;0.00;;
19223;SDS011;9746;47.180;9.776;2022-08-26T14:24:45;0.00;;;0.00;;
19223;SDS011;9746;47.180;9.776;2022-08-26T14:27:13;0.00;;;0.00;;
19223;SDS011;9746;47.180;9.776;2022-08-26T14:29:40;0.00;;;0.00;;
19223;SDS011;9746;47.180;9.776;2022-08-26T14:32:09;0.00;;;0.00;;
19223;SDS011;9746;47.180;9.776;2022-08-26T14:34:43;0.00;;;0.00;;
19223;SDS011;9746;47.180;9.776;2022-08-26T14:37:12;0.00;;;0.00;;
19223;SDS011;9746;47.180;9.776;2022-08-26T14:39:40;0.00;;;0.00;;
19223;SDS011;9746;47.180;9.776;2022-08-26T14:42:07;0.00;;;0.00;;
19223;SDS011;9746;47.180;9.776;2022-08-26T14:44:35;0.00;;;0.00;;
19223;SDS011;9746;47.180;9.776;2022-08-26T14:47:04;0.00;;;0.00;;
19223;SDS011;9746;47.180;9.776;2022-08-26T14:49:32;0.00;;;0.00;;
19223;SDS011;9746;47.180;9.776;2022-08-26T14:52:01;0.00;;;0.00;;
19223;SDS011;9746;47.180;9.776;2022-08-26T14:54:29;0.00;;;0.00;;
19223;SDS011;9746;47.180;9.776;2022-08-26T14:56:56;0.00;;;0.00;;
19223;SDS011;9746;47.180;9.776;2022-08-26T14:59:26;0.00;;;0.00;;
19223;SDS011;9746;47.180;9.776;2022-08-26T15:01:56;0.00;;;0.00;;
19223;SDS011;9746;47.180;9.776;2022-08-26T15:04:24;0.00;;;0.00;;
19223;SDS011;9746;47.180;9.776;2022-08-26T15:06:52;0.00;;;0.00;;
19223;SDS011;9746;47.180;9.776;2022-08-26T15:09:22;0.00;;;0.00;;
19223;SDS011;9746;47.180;9.776;2022-08-26T15:11:50;0.00;;;0.00;;
19223;SDS011;9746;47.180;9.776;2022-08-26T15:14:19;0.00;;;0.00;;
19223;SDS011;9746;47.180;9.776;2022-08-26T15:16:48;0.00;;;0.00;;
19223;SDS011;9746;47.180;9.776;2022-08-26T15:19:18;0.00;;;0.00;;
19223;SDS011;9746;47.180;9.776;2022-08-26T15:21:46;0.00;;;0.00;;
19223;SDS011;9746;47.180;9.776;2022-08-26T15:24:14;0.00;;;0.00;;
19223;SDS011;9746;47.180;9.776;2022-08-26T15:26:45;0.00;;;0.00;;
19223;SDS011;9746;47.180;9.776;2022-08-26T15:29:14;0.00;;;0.00;;
19223;SDS011;9746;47.180;9.776;2022-08-26T15:31:41;0.00;;;0.00;;
19223;SDS011;9746;47.180;9.776;2022-08-26T15:34:09;0.03;;;0.03;;
19223;SDS011;9746;47.180;9.776;2022-08-26T15:36:38;0.00;;;0.00;;
19223;SDS011;9746;47.180;9.776;2022-08-26T15:39:07;0.00;;;0.00;;
19223;SDS011;9746;47.180;9.776;2022-08-26T15:41:35;0.10;;;0.10;;
19223;SDS011;9746;47.180;9.776;2022-08-26T15:44:04;0.00;;;0.00;;
19223;SDS011;9746;47.180;9.776;2022-08-26T15:46:33;0.00;;;0.00;;
19223;SDS011;9746;47.180;9.776;2022-08-26T15:49:01;0.03;;;0.03;;
19223;SDS011;9746;47.180;9.776;2022-08-26T15:51:30;0.00;;;0.00;;
19223;SDS011;9746;47.180;9.776;2022-08-26T15:54:00;0.00;;;0.00;;
19223;SDS011;9746;47.180;9.776;2022-08-26T15:56:29;0.00;;;0.00;;
19223;SDS011;9746;47.180;9.776;2022-08-26T15:58:59;0.00;;;0.00;;
19223;SDS011;9746;47.180;9.776;2022-08-26T16:01:28;0.00;;;0.00;;
19223;SDS011;9746;47.180;9.776;2022-08-26T16:03:58;0.00;;;0.00;;
19223;SDS011;9746;47.180;9.776;2022-08-26T16:06:26;0.00;;;0.00;;
19223;SDS011;9746;47.180;9.776;2022-08-26T16:08:56;0.00;;;0.00;;
19223;SDS011;9746;47.180;9.776;2022-08-26T16:11:25;0.00;;;0.00;;
19223;SDS011;9746;47.180;9.776;2022-08-26T16:13:53;0.10;;;0.10;;
19223;SDS011;9746;47.180;9.776;2022-08-26T16:16:21;0.00;;;0.00;;
19223;SDS011;9746;47.180;9.776;2022-08-26T16:18:50;0.10;;;0.10;;
19223;SDS011;9746;47.180;9.776;2022-08-26T16:21:18;0.10;;;0.10;;
19223;SDS011;9746;47.180;9.776;2022-08-26T16:23:47;0.00;;;0.00;;
19223;SDS011;9746;47.180;9.776;2022-08-26T16:26:16;0.00;;;0.00;;
19223;SDS011;9746;47.180;9.776;2022-08-26T16:28:45;0.00;;;0.00;;
19223;SDS011;9746;47.180;9.776;2022-08-26T16:31:14;0.00;;;0.00;;
19223;SDS011;9746;47.180;9.776;2022-08-26T16:33:42;0.10;;;0.10;;
19223;SDS011;9746;47.180;9.776;2022-08-26T16:36:12;0.10;;;0.10;;
19223;SDS011;9746;47.180;9.776;2022-08-26T16:38:40;0.10;;;0.10;;
19223;SDS011;9746;47.180;9.776;2022-08-26T16:41:12;0.10;;;0.10;;
19223;SDS011;9746;47.180;9.776;2022-08-26T16:43:39;0.10;;;0.10;;
19223;SDS011;9746;47.180;9.776;2022-08-26T16:46:07;0.08;;;0.08;;
19223;SDS011;9746;47.180;9.776;2022-08-26T16:48:35;0.10;;;0.10;;
19223;SDS011;9746;47.180;9.776;2022-08-26T16:51:03;0.10;;;0.10;;
19223;SDS011;9746;47.180;9.776;2022-08-26T16:53:32;0.00;;;0.00;;
19223;SDS011;9746;47.180;9.776;2022-08-26T16:55:59;0.10;;;0.10;;
19223;SDS011;9746;47.180;9.776;2022-08-26T16:58:26;0.00;;;0.00;;
19223;SDS011;9746;47.180;9.776;2022-08-26T17:00:54;0.10;;;0.10;;
19223;SDS011;9746;47.180;9.776;2022-08-26T17:03:22;0.10;;;0.10;;
19223;SDS011;9746;47.180;9.776;2022-08-26T17:05:50;0.10;;;0.10;;
19223;SDS011;9746;47.180;9.776;2022-08-26T17:08:17;0.10;;;0.10;;
19223;SDS011;9746;47.180;9.776;2022-08-26T17:10:46;0.10;;;0.10;;
19223;SDS011;9746;47.180;9.776;2022-08-26T17:13:13;0.10;;;0.10;;
19223;SDS011;9746;47.180;9.776;2022-08-26T17:15:43;0.10;;;0.10;;
19223;SDS011;9746;47.180;9.776;2022-08-26T17:18:18;0.10;;;0.10;;
19223;SDS011;9746;47.180;9.776;2022-08-26T17:20:45;0.10;;;0.10;;
19223;SDS011;9746;47.180;9.776;2022-08-26T17:23:12;0.10;;;0.10;;
19223;SDS011;9746;47.180;9.776;2022-08-26T17:25:40;0.10;;;0.10;;
19223;SDS011;9746;47.180;9.776;2022-08-26T17:28:09;0.10;;;0.10;;
19223;SDS011;9746;47.180;9.776;2022-08-26T17:30:37;0.10;;;0.10;;
19223;SDS011;9746;47.180;9.776;2022-08-26T17:33:05;0.10;;;0.10;;
19223;SDS011;9746;47.180;9.776;2022-08-26T17:35:33;0.10;;;0.10;;
19223;SDS011;9746;47.180;9.776;2022-08-26T17:38:01;0.10;;;0.10;;
19223;SDS011;9746;47.180;9.776;2022-08-26T17:40:28;0.10;;;0.10;;
19223;SDS011;9746;47.180;9.776;2022-08-26T17:42:56;0.10;;;0.10;;
19223;SDS011;9746;47.180;9.776;2022-08-26T17:45:25;0.10;;;0.10;;
19223;SDS011;9746;47.180;9.776;2022-08-26T17:47:54;0.00;;;0.00;;
19223;SDS011;9746;47.180;9.776;2022-08-26T17:50:21;0.03;;;0.03;;
19223;SDS011;9746;47.180;9.776;2022-08-26T17:52:49;0.10;;;0.10;;
19223;SDS011;9746;47.180;9.776;2022-08-26T17:55:17;0.10;;;0.10;;
19223;SDS011;9746;47.180;9.776;2022-08-26T17:57:44;0.10;;;0.10;;
19223;SDS011;9746;47.180;9.776;2022-08-26T18:00:13;0.00;;;0.00;;
19223;SDS011;9746;47.180;9.776;2022-08-26T18:02:44;0.00;;;0.00;;
19223;SDS011;9746;47.180;9.776;2022-08-26T18:05:12;0.00;;;0.00;;
19223;SDS011;9746;47.180;9.776;2022-08-26T18:07:41;0.10;;;0.00;;
19223;SDS011;9746;47.180;9.776;2022-08-26T18:10:10;0.00;;;0.00;;
19223;SDS011;9746;47.180;9.776;2022-08-26T18:12:39;0.00;;;0.00;;
19223;SDS011;9746;47.180;9.776;2022-08-26T18:15:07;0.10;;;0.10;;
19223;SDS011;9746;47.180;9.776;2022-08-26T18:17:36;0.10;;;0.10;;
19223;SDS011;9746;47.180;9.776;2022-08-26T18:20:07;0.10;;;0.10;;
19223;SDS011;9746;47.180;9.776;2022-08-26T18:22:36;0.00;;;0.00;;
19223;SDS011;9746;47.180;9.776;2022-08-26T18:25:04;0.10;;;0.10;;
19223;SDS011;9746;47.180;9.776;2022-08-26T18:27:33;0.10;;;0.10;;
19223;SDS011;9746;47.180;9.776;2022-08-26T18:30:02;0.10;;;0.10;;
19223;SDS011;9746;47.180;9.776;2022-08-26T18:32:30;0.10;;;0.10;;
19223;SDS011;9746;47.180;9.776;2022-08-26T18:34:57;0.10;;;0.10;;
19223;SDS011;9746;47.180;9.776;2022-08-26T18:37:26;0.10;;;0.10;;
19223;SDS011;9746;47.180;9.776;2022-08-26T18:39:54;0.10;;;0.10;;
19223;SDS011;9746;47.180;9.776;2022-08-26T18:42:21;0.10;;;0.10;;
19223;SDS011;9746;47.180;9.776;2022-08-26T18:44:48;0.10;;;0.10;;
19223;SDS011;9746;47.180;9.776;2022-08-26T18:47:16;0.05;;;0.05;;
19223;SDS011;9746;47.180;9.776;2022-08-26T18:49:44;0.10;;;0.10;;
19223;SDS011;9746;47.180;9.776;2022-08-26T18:52:12;0.10;;;0.10;;
19223;SDS011;9746;47.180;9.776;2022-08-26T18:54:41;0.10;;;0.10;;
19223;SDS011;9746;47.180;9.776;2022-08-26T18:57:10;0.20;;;0.20;;
19223;SDS011;9746;47.180;9.776;2022-08-26T18:59:38;0.10;;;0.10;;
19223;SDS011;9746;47.180;9.776;2022-08-26T19:02:06;0.10;;;0.10;;
19223;SDS011;9746;47.180;9.776;2022-08-26T19:04:34;0.10;;;0.10;;
19223;SDS011;9746;47.180;9.776;2022-08-26T19:07:03;0.10;;;0.10;;
19223;SDS011;9746;47.180;9.776;2022-08-26T19:09:31;0.10;;;0.10;;
19223;SDS011;9746;47.180;9.776;2022-08-26T19:12:01;0.10;;;0.10;;
19223;SDS011;9746;47.180;9.776;2022-08-26T19:14:29;0.10;;;0.10;;
19223;SDS011;9746;47.180;9.776;2022-08-26T19:16:57;0.10;;;0.10;;
19223;SDS011;9746;47.180;9.776;2022-08-26T19:19:25;0.10;;;0.10;;
19223;SDS011;9746;47.180;9.776;2022-08-26T19:21:53;0.10;;;0.10;;
19223;SDS011;9746;47.180;9.776;2022-08-26T19:24:20;0.10;;;0.10;;
19223;SDS011;9746;47.180;9.776;2022-08-26T19:26:49;0.10;;;0.10;;
19223;SDS011;9746;47.180;9.776;2022-08-26T19:29:21;0.10;;;0.10;;
19223;SDS011;9746;47.180;9.776;2022-08-26T19:31:50;0.10;;;0.10;;
19223;SDS011;9746;47.180;9.776;2022-08-26T19:34:17;0.10;;;0.10;;
19223;SDS011;9746;47.180;9.776;2022-08-26T19:36:44;0.10;;;0.10;;
19223;SDS011;9746;47.180;9.776;2022-08-26T19:39:12;0.10;;;0.10;;
19223;SDS011;9746;47.180;9.776;2022-08-26T19:41:39;0.10;;;0.10;;
19223;SDS011;9746;47.180;9.776;2022-08-26T19:44:08;0.10;;;0.10;;
19223;SDS011;9746;47.180;9.776;2022-08-26T19:46:38;0.10;;;0.10;;
19223;SDS011;9746;47.180;9.776;2022-08-26T19:49:06;0.10;;;0.10;;
19223;SDS011;9746;47.180;9.776;2022-08-26T19:51:33;0.10;;;0.10;;
19223;SDS011;9746;47.180;9.776;2022-08-26T19:54:02;0.10;;;0.10;;
19223;SDS011;9746;47.180;9.776;2022-08-26T19:56:30;0.10;;;0.10;;
19223;SDS011;9746;47.180;9.776;2022-08-26T19:58:57;0.10;;;0.10;;
19223;SDS011;9746;47.180;9.776;2022-08-26T20:01:25;0.10;;;0.10;;
19223;SDS011;9746;47.180;9.776;2022-08-26T20:03:54;0.10;;;0.10;;
19223;SDS011;9746;47.180;9.776;2022-08-26T20:06:22;0.10;;;0.10;;
19223;SDS011;9746;47.180;9.776;2022-08-26T20:08:49;0.10;;;0.10;;
19223;SDS011;9746;47.180;9.776;2022-08-26T20:11:16;0.10;;;0.10;;
19223;SDS011;9746;47.180;9.776;2022-08-26T20:13:44;0.10;;;0.10;;
19223;SDS011;9746;47.180;9.776;2022-08-26T20:16:13;0.15;;;0.15;;
19223;SDS011;9746;47.180;9.776;2022-08-26T20:18:41;0.10;;;0.10;;
19223;SDS011;9746;47.180;9.776;2022-08-26T20:21:29;0.10;;;0.10;;
19223;SDS011;9746;47.180;9.776;2022-08-26T20:24:00;0.10;;;0.10;;
19223;SDS011;9746;47.180;9.776;2022-08-26T20:26:32;0.10;;;0.10;;
19223;SDS011;9746;47.180;9.776;2022-08-26T20:29:01;0.10;;;0.10;;
